Time;durP1;ratioP1;P1;durP2;ratioP2;P2;SDS_P1;SDS_P2;PMS_P1;PMS_P2;Temp;Humidity;BMP_temperature;BMP_pressure;BME280_temperature;BME280_humidity;BME280_pressure;Samples;Min_cycle;Max_cycle;Signal;HPM_P1;HPM_P2
2022/01/19 00:00:39;;;;;;;33.97;19.88;;;5.70;99.90;;;;;;6245096;22;20065;-87
2022/01/19 00:03:04;;;;;;;37.17;21.27;;;5.70;99.90;;;;;;6272197;22;20485;-87
2022/01/19 00:05:30;;;;;;;38.03;20.42;;;5.80;99.90;;;;;;6245141;22;20016;-87
2022/01/19 00:07:56;;;;;;;38.75;20.80;;;5.80;99.90;;;;;;6246084;22;20371;-88
2022/01/19 00:10:27;;;;;;;36.95;19.90;;;5.80;99.90;;;;;;6272446;22;20547;-89
2022/01/19 00:12:55;;;;;;;37.58;21.13;;;5.90;99.90;;;;;;6272425;22;20000;-89
2022/01/19 00:15:21;;;;;;;39.97;20.00;;;5.70;99.90;;;;;;6245088;22;20000;-89
2022/01/19 00:17:47;;;;;;;38.05;20.05;;;5.80;99.90;;;;;;6272148;22;20014;-86
2022/01/19 00:20:13;;;;;;;36.92;20.92;;;5.80;99.90;;;;;;6272133;22;20332;-85
2022/01/19 00:22:39;;;;;;;39.78;19.95;;;5.80;99.90;;;;;;6271932;22;20471;-86
2022/01/19 00:25:06;;;;;;;35.05;20.63;;;5.80;99.90;;;;;;6271937;22;20008;-89
2022/01/19 00:27:33;;;;;;;37.70;20.27;;;5.80;99.90;;;;;;6272104;22;20000;-90
2022/01/19 00:29:58;;;;;;;36.25;20.85;;;5.80;99.90;;;;;;6273051;22;20076;-88
2022/01/19 00:32:25;;;;;;;37.13;20.20;;;5.80;99.90;;;;;;6271936;22;19999;-87
2022/01/19 00:34:51;;;;;;;36.92;21.73;;;5.90;99.90;;;;;;6244463;22;20003;-88
2022/01/19 00:37:16;;;;;;;37.92;20.33;;;5.80;99.90;;;;;;6272016;22;20011;-87
2022/01/19 00:39:42;;;;;;;36.05;19.92;;;5.80;99.90;;;;;;6244922;22;20003;-89
2022/01/19 00:42:08;;;;;;;35.63;20.33;;;5.80;99.90;;;;;;6271893;22;20000;-87
2022/01/19 00:44:33;;;;;;;36.63;19.98;;;5.90;99.90;;;;;;6271623;22;20011;-87
2022/01/19 00:47:00;;;;;;;37.88;20.73;;;5.90;99.90;;;;;;6272726;22;19996;-90
2022/01/19 00:49:25;;;;;;;39.85;21.15;;;5.90;99.90;;;;;;6272796;22;20027;-86
2022/01/19 00:51:51;;;;;;;37.28;20.92;;;5.80;99.90;;;;;;6272042;22;20420;-87
2022/01/19 00:54:16;;;;;;;34.70;19.88;;;5.80;99.90;;;;;;6271931;22;20374;-89
2022/01/19 00:56:43;;;;;;;37.00;21.40;;;5.90;99.90;;;;;;6271921;22;20501;-85
2022/01/19 00:59:08;;;;;;;41.03;20.80;;;5.80;99.90;;;;;;6271607;22;20317;-83
2022/01/19 01:01:34;;;;;;;37.97;21.25;;;5.70;99.90;;;;;;6244501;22;20004;-87
2022/01/19 01:04:00;;;;;;;35.38;20.33;;;5.80;99.90;;;;;;6272465;22;20014;-87
2022/01/19 01:06:25;;;;;;;41.20;21.33;;;5.80;99.90;;;;;;6272131;22;20003;-87
2022/01/19 01:08:51;;;;;;;39.25;20.65;;;5.80;99.90;;;;;;6271779;22;20003;-86
2022/01/19 01:11:17;;;;;;;36.67;20.45;;;5.90;99.90;;;;;;6271720;22;20006;-87
2022/01/19 01:18:58;;;;;;;35.80;20.70;;;5.80;99.90;;;;;;6272763;22;20146;-86
2022/01/19 01:21:24;;;;;;;35.95;20.63;;;5.90;99.90;;;;;;6271575;22;20007;-86
2022/01/19 01:23:49;;;;;;;37.53;20.38;;;5.90;99.90;;;;;;6244231;22;20348;-86
2022/01/19 01:26:15;;;;;;;37.38;21.10;;;5.90;99.90;;;;;;6271464;22;20008;-88
2022/01/19 01:28:41;;;;;;;39.13;21.80;;;5.90;99.90;;;;;;6244319;22;20074;-88
2022/01/19 01:31:10;;;;;;;39.33;21.67;;;5.90;99.90;;;;;;6244204;22;20447;-87
2022/01/19 01:33:38;;;;;;;37.05;22.08;;;5.80;99.90;;;;;;6271512;22;20003;-88
2022/01/19 01:36:04;;;;;;;40.55;21.40;;;5.80;99.90;;;;;;6271556;22;20007;-89
2022/01/19 01:38:30;;;;;;;41.47;21.35;;;5.80;99.90;;;;;;6272449;22;20007;-89
2022/01/19 01:40:55;;;;;;;40.80;22.70;;;5.90;99.90;;;;;;6271481;22;19999;-87
2022/01/19 01:43:21;;;;;;;42.95;21.15;;;5.80;99.90;;;;;;6270991;22;20786;-88
2022/01/19 01:45:51;;;;;;;39.53;21.42;;;5.80;99.90;;;;;;6270986;22;20069;-90
2022/01/19 01:48:20;;;;;;;40.13;21.63;;;5.80;99.90;;;;;;6271275;22;20004;-88
2022/01/19 01:53:33;;;;;;;43.00;22.73;;;5.70;99.90;;;;;;6272123;22;20525;-88
2022/01/19 01:56:03;;;;;;;40.60;21.90;;;5.70;99.90;;;;;;6244972;22;20455;-88
2022/01/19 01:58:33;;;;;;;42.20;22.13;;;5.70;99.90;;;;;;6272395;22;20332;-90
2022/01/19 02:00:59;;;;;;;43.85;22.05;;;5.70;99.90;;;;;;6245118;22;20000;-87
2022/01/19 02:03:26;;;;;;;43.90;23.48;;;5.70;99.90;;;;;;6271187;22;20003;-87
2022/01/19 02:08:23;;;;;;;;;;;5.60;99.90;;;;;;6272044;22;20007;-87
2022/01/19 02:11:27;;;;;;;38.72;21.98;;;5.70;99.90;;;;;;6271088;22;19981;-87
2022/01/19 02:21:56;;;;;;;36.88;20.92;;;5.70;99.90;;;;;;6271090;22;20471;-88
2022/01/19 02:24:22;;;;;;;38.88;21.60;;;5.60;99.90;;;;;;6271154;22;20499;-89
2022/01/19 02:27:09;;;;;;;38.13;21.02;;;5.70;99.90;;;;;;6271133;22;20444;-89
2022/01/19 02:40:17;;;;;;;44.58;22.20;;;5.60;99.90;;;;;;6270969;22;20467;-88
2022/01/19 02:51:01;;;;;;;39.40;21.17;;;5.70;99.90;;;;;;6272669;22;20011;-90
2022/01/19 02:53:27;;;;;;;41.47;22.13;;;5.60;99.90;;;;;;6271127;22;20000;-88
2022/01/19 02:55:53;;;;;;;37.58;21.40;;;5.60;99.90;;;;;;6271017;22;20054;-85
2022/01/19 02:58:21;;;;;;;44.28;22.05;;;5.60;99.90;;;;;;6271908;22;20428;-87
2022/01/19 03:09:00;;;;;;;39.75;21.63;;;5.50;99.90;;;;;;6272731;22;20010;-89
2022/01/19 03:11:25;;;;;;;45.85;22.90;;;5.60;99.90;;;;;;6272633;22;20007;-88
2022/01/19 03:13:51;;;;;;;46.92;22.02;;;5.80;99.90;;;;;;6272853;22;20000;-85
2022/01/19 03:16:18;;;;;;;43.92;20.77;;;5.70;99.90;;;;;;6272752;22;20011;-86
2022/01/19 03:18:44;;;;;;;46.50;22.38;;;5.60;99.90;;;;;;6272681;22;20000;-88
2022/01/19 03:21:10;;;;;;;43.53;22.25;;;5.60;99.90;;;;;;6245441;22;20482;-88
2022/01/19 03:23:36;;;;;;;43.83;22.38;;;5.60;99.90;;;;;;6273513;22;20034;-89
2022/01/19 03:26:06;;;;;;;41.15;21.88;;;5.60;99.90;;;;;;6272827;22;20011;-90
2022/01/19 03:28:35;;;;;;;42.22;21.95;;;5.60;99.90;;;;;;6245690;22;20000;-88
2022/01/19 03:31:01;;;;;;;41.40;20.98;;;5.70;99.90;;;;;;6272631;22;20501;-89
2022/01/19 03:33:27;;;;;;;38.05;21.75;;;5.70;99.90;;;;;;6272249;22;20084;-88
2022/01/19 03:35:53;;;;;;;43.97;22.42;;;5.60;99.90;;;;;;6272268;22;20003;-90
2022/01/19 03:38:18;;;;;;;38.78;20.77;;;5.70;99.90;;;;;;6245293;22;19999;-90
2022/01/19 03:40:44;;;;;;;42.80;21.13;;;5.70;99.90;;;;;;6272797;22;20004;-86
2022/01/19 03:43:11;;;;;;;41.63;22.77;;;5.70;99.90;;;;;;6272252;22;20003;-86
2022/01/19 03:45:37;;;;;;;47.70;23.05;;;5.70;99.90;;;;;;6273506;22;20078;-91
2022/01/19 03:50:34;;;;;;;43.60;22.70;;;5.70;99.90;;;;;;6272206;22;20010;-87
2022/01/19 03:53:00;;;;;;;41.70;22.67;;;5.60;99.90;;;;;;6272178;22;20521;-88
2022/01/19 03:55:25;;;;;;;41.58;21.60;;;5.60;99.90;;;;;;6272672;22;20480;-87
2022/01/19 03:57:51;;;;;;;42.35;22.27;;;5.60;99.90;;;;;;6272436;22;20440;-88
2022/01/19 04:00:18;;;;;;;40.60;22.38;;;5.60;99.90;;;;;;6272656;22;20035;-84
2022/01/19 04:02:44;;;;;;;38.33;20.95;;;5.50;99.90;;;;;;6272165;22;20049;-82
2022/01/19 04:05:19;;;;;;;49.22;21.95;;;5.60;99.90;;;;;;6272498;22;20016;-84
2022/01/19 04:07:45;;;;;;;44.78;22.27;;;5.60;99.90;;;;;;6271753;22;19995;-87
2022/01/19 04:10:11;;;;;;;47.50;22.88;;;5.70;99.90;;;;;;6272151;22;20029;-84
2022/01/19 04:12:56;;;;;;;41.50;21.65;;;5.60;99.90;;;;;;6246484;22;20010;-87
2022/01/19 04:15:23;;;;;;;42.10;22.10;;;5.60;99.90;;;;;;6244821;22;20007;-86
2022/01/19 04:17:54;;;;;;;38.67;21.05;;;5.60;99.90;;;;;;6272110;22;20022;-87
2022/01/19 04:20:25;;;;;;;36.42;20.23;;;5.60;99.90;;;;;;6272104;22;20000;-86
2022/01/19 04:22:51;;;;;;;39.25;20.30;;;5.60;99.90;;;;;;6272304;22;20030;-83
2022/01/19 04:25:17;;;;;;;39.53;20.33;;;5.60;99.90;;;;;;6271793;22;20007;-88
2022/01/19 04:27:43;;;;;;;41.88;20.83;;;5.60;99.90;;;;;;6272200;22;20000;-84
2022/01/19 04:30:12;;;;;;;44.95;20.40;;;5.60;99.90;;;;;;6272971;22;20006;-85
2022/01/19 04:32:49;;;;;;;38.20;20.13;;;5.60;99.90;;;;;;6243185;22;20435;-84
2022/01/19 04:35:21;;;;;;;41.05;20.67;;;5.60;99.90;;;;;;6272319;22;19996;-89
2022/01/19 05:10:00;;;;;;;39.33;20.23;;;5.50;99.90;;;;;;6271493;22;20014;-88
2022/01/19 05:15:10;;;;;;;46.05;20.33;;;5.50;99.90;;;;;;6272059;22;20343;-86
2022/01/19 05:17:36;;;;;;;41.45;19.58;;;5.50;99.90;;;;;;6271559;22;20008;-89
2022/01/19 05:20:06;;;;;;;37.92;19.77;;;5.50;99.90;;;;;;6271570;22;20026;-89
2022/01/19 05:22:32;;;;;;;41.47;19.88;;;5.50;99.90;;;;;;6243804;22;20033;-85
2022/01/19 05:24:58;;;;;;;38.38;20.27;;;5.50;99.90;;;;;;6271628;22;20016;-87
2022/01/19 05:27:24;;;;;;;36.22;19.33;;;5.50;99.90;;;;;;6271808;22;20455;-86
2022/01/19 05:29:50;;;;;;;42.33;19.95;;;5.50;99.90;;;;;;6271491;22;20344;-88
2022/01/19 05:32:16;;;;;;;38.25;20.33;;;5.50;99.90;;;;;;6271584;22;19996;-87
2022/01/19 05:34:42;;;;;;;44.13;19.38;;;5.50;99.90;;;;;;6245455;22;20014;-85
2022/01/19 05:37:08;;;;;;;40.22;20.42;;;5.50;99.90;;;;;;6271505;22;20074;-87
2022/01/19 05:39:34;;;;;;;43.83;20.65;;;5.50;99.90;;;;;;6271652;22;20314;-90
2022/01/19 05:41:59;;;;;;;44.95;19.52;;;5.40;99.90;;;;;;6271691;22;20045;-86
2022/01/19 05:44:25;;;;;;;36.63;19.70;;;5.50;99.90;;;;;;6271458;22;20038;-85
2022/01/19 05:46:51;;;;;;;44.13;19.88;;;5.50;99.90;;;;;;6271590;22;20049;-89
2022/01/19 05:49:16;;;;;;;39.47;20.20;;;5.50;99.90;;;;;;6273827;22;20279;-93
2022/01/19 05:51:42;;;;;;;43.72;20.05;;;5.50;99.90;;;;;;6286596;22;20004;-87
2022/01/19 05:54:08;;;;;;;36.33;19.15;;;5.60;99.90;;;;;;6259957;22;20094;-87
2022/01/19 05:56:33;;;;;;;34.28;19.33;;;5.80;99.90;;;;;;6286487;22;19995;-91
2022/01/19 05:58:59;;;;;;;40.33;20.42;;;5.60;99.90;;;;;;6255109;22;20092;-88
2022/01/19 06:01:25;;;;;;;41.90;20.33;;;5.70;99.90;;;;;;6257315;22;20019;-89
2022/01/19 06:03:51;;;;;;;39.28;20.10;;;6.10;99.90;;;;;;6256245;22;20019;-88
2022/01/19 06:06:17;;;;;;;42.90;19.73;;;5.70;99.90;;;;;;6257510;22;20007;-87
2022/01/19 06:08:47;;;;;;;41.38;20.20;;;5.70;99.90;;;;;;6254729;22;20062;-91
2022/01/19 06:11:13;;;;;;;41.35;20.02;;;5.70;99.90;;;;;;6252048;22;20000;-91
2022/01/19 06:13:39;;;;;;;34.30;19.02;;;5.80;99.90;;;;;;6247556;22;20062;-89
2022/01/19 06:16:05;;;;;;;42.72;19.98;;;5.70;99.90;;;;;;6250430;22;20000;-91
2022/01/19 06:18:31;;;;;;;39.97;19.80;;;5.70;99.90;;;;;;6278539;22;20198;-89
2022/01/19 06:20:56;;;;;;;38.05;19.85;;;5.70;99.90;;;;;;6246526;22;20000;-90
2022/01/19 06:23:22;;;;;;;38.53;20.63;;;5.80;99.90;;;;;;6255012;22;20011;-93
2022/01/19 06:25:48;;;;;;;37.65;19.42;;;5.80;99.90;;;;;;6256824;22;20019;-87
2022/01/19 06:28:14;;;;;;;37.17;19.25;;;5.70;99.90;;;;;;6284815;22;19996;-88
2022/01/19 06:30:40;;;;;;;40.08;19.75;;;5.80;99.90;;;;;;6283466;22;19999;-93
2022/01/19 06:33:06;;;;;;;42.08;20.00;;;5.70;99.90;;;;;;6285332;22;20258;-90
2022/01/19 06:35:33;;;;;;;40.67;20.35;;;5.80;99.90;;;;;;6289684;22;20023;-88
2022/01/19 06:37:58;;;;;;;43.55;20.73;;;6.30;99.90;;;;;;6260666;22;20014;-92
2022/01/19 06:40:27;;;;;;;40.13;19.08;;;5.80;99.90;;;;;;6284941;22;20424;-90
2022/01/19 06:42:54;;;;;;;43.88;21.00;;;5.70;99.90;;;;;;6249125;22;20011;-95
2022/01/19 06:45:20;;;;;;;36.80;19.65;;;5.80;99.90;;;;;;6285634;22;20090;-89
2022/01/19 06:47:46;;;;;;;50.17;20.48;;;5.70;99.90;;;;;;6256755;22;20011;-94
2022/01/19 06:50:13;;;;;;;39.58;19.58;;;5.70;99.90;;;;;;6256501;22;20086;-92
2022/01/19 06:52:39;;;;;;;42.35;20.15;;;5.70;99.90;;;;;;6257451;22;20288;-91
2022/01/19 06:55:06;;;;;;;36.95;18.05;;;5.80;99.90;;;;;;6281657;22;20030;-94
2022/01/19 06:57:32;;;;;;;38.45;18.67;;;5.70;99.90;;;;;;6256234;22;20012;-90
2022/01/19 06:59:58;;;;;;;35.25;18.38;;;5.70;99.90;;;;;;6289057;22;20503;-90
2022/01/19 07:02:24;;;;;;;40.97;19.02;;;5.70;99.90;;;;;;6265020;22;20004;-92
2022/01/19 07:05:00;;;;;;;40.47;18.75;;;5.70;99.90;;;;;;6295772;22;20004;-89
2022/01/19 07:07:27;;;;;;;38.38;19.25;;;5.70;99.90;;;;;;6292371;22;20010;-93
2022/01/19 07:09:54;;;;;;;39.97;18.45;;;5.70;99.90;;;;;;6224697;22;20042;-89
2022/01/19 07:12:45;;;;;;;37.50;18.48;;;5.70;99.90;;;;;;6295269;22;19984;-90
2022/01/19 07:15:28;;;;;;;36.35;19.05;;;5.70;99.90;;;;;;6251826;22;20008;-91
2022/01/19 07:17:59;;;;;;;37.70;18.92;;;5.70;99.90;;;;;;6272335;22;20008;-89
2022/01/19 07:20:29;;;;;;;42.75;19.42;;;6.30;99.90;;;;;;6298791;22;19995;-90
2022/01/19 07:23:07;;;;;;;37.33;19.70;;;5.70;99.90;;;;;;6245207;22;20004;-88
2022/01/19 07:25:34;;;;;;;33.95;17.77;;;5.70;99.90;;;;;;6289144;22;20023;-89
2022/01/19 07:28:03;;;;;;;35.72;17.85;;;5.70;99.90;;;;;;6295264;22;20043;-88
2022/01/19 07:30:39;;;;;;;34.45;17.77;;;5.70;99.90;;;;;;6297568;22;20000;-87
2022/01/19 07:33:05;;;;;;;;;;;5.80;99.90;;;;;;6297405;22;19999;-88
2022/01/19 07:35:31;;;;;;;36.17;17.77;;;5.80;99.90;;;;;;6291884;22;19903;-87
2022/01/19 07:37:58;;;;;;;39.95;18.48;;;5.80;99.90;;;;;;6293713;22;20004;-87
2022/01/19 07:40:29;;;;;;;39.15;18.13;;;5.80;99.90;;;;;;6271164;22;20043;-88
2022/01/19 07:42:55;;;;;;;35.47;17.60;;;5.80;99.90;;;;;;6293108;22;20011;-93
2022/01/19 07:45:21;;;;;;;33.53;17.10;;;5.80;99.90;;;;;;6278294;22;20015;-89
2022/01/19 07:47:46;;;;;;;33.30;16.88;;;5.80;99.90;;;;;;6257486;22;20068;-91
2022/01/19 07:50:12;;;;;;;38.78;18.25;;;5.80;99.90;;;;;;6254987;22;20390;-92
2022/01/19 07:52:38;;;;;;;31.92;16.83;;;5.90;99.90;;;;;;6280926;22;20517;-93
2022/01/19 07:55:04;;;;;;;33.10;17.67;;;6.00;99.90;;;;;;6255473;22;20013;-90
2022/01/19 07:57:30;;;;;;;32.42;16.88;;;5.90;99.90;;;;;;6283922;22;19996;-89
2022/01/19 07:59:55;;;;;;;38.30;17.17;;;5.90;99.90;;;;;;6253974;22;20039;-92
2022/01/19 08:02:22;;;;;;;36.15;17.15;;;5.90;99.90;;;;;;6283115;22;20309;-90
2022/01/19 08:04:47;;;;;;;32.15;16.15;;;5.90;99.90;;;;;;6284651;22;20046;-94
2022/01/19 08:07:13;;;;;;;33.50;16.38;;;5.90;99.90;;;;;;6274948;22;19996;-94
2022/01/19 08:09:40;;;;;;;31.20;15.90;;;5.90;99.90;;;;;;6272939;22;19999;-88
2022/01/19 08:12:06;;;;;;;29.95;15.65;;;5.90;99.90;;;;;;6244817;22;20003;-94
2022/01/19 08:14:32;;;;;;;32.88;16.98;;;5.90;99.90;;;;;;6246136;22;20321;-91
2022/01/19 08:16:58;;;;;;;32.65;16.48;;;6.00;99.90;;;;;;6272665;22;20057;-95
2022/01/19 08:19:25;;;;;;;32.50;16.48;;;6.00;99.90;;;;;;6272573;22;20031;-90
2022/01/19 08:21:52;;;;;;;33.78;15.65;;;6.10;99.90;;;;;;6273070;22;20023;-96
2022/01/19 08:24:17;;;;;;;33.47;16.90;;;6.00;99.90;;;;;;6246638;22;20016;-86
2022/01/19 08:26:44;;;;;;;34.22;17.27;;;6.10;99.90;;;;;;6245934;22;20087;-92
2022/01/19 08:29:10;;;;;;;33.80;17.00;;;6.00;99.90;;;;;;6244981;22;20003;-89
2022/01/19 08:31:36;;;;;;;34.67;16.90;;;6.10;99.90;;;;;;6271306;22;20048;-93
2022/01/19 08:34:02;;;;;;;35.85;17.05;;;6.10;99.90;;;;;;6245776;22;20019;-92
2022/01/19 08:36:28;;;;;;;35.83;16.10;;;6.10;99.90;;;;;;6271922;22;19999;-90
2022/01/19 08:38:54;;;;;;;27.35;15.25;;;6.10;99.90;;;;;;6272510;22;20066;-93
2022/01/19 08:41:20;;;;;;;29.00;14.52;;;6.10;99.90;;;;;;6246676;22;20003;-91
2022/01/19 08:43:46;;;;;;;30.85;15.77;;;6.30;99.90;;;;;;6272475;22;20015;-95
2022/01/19 08:46:12;;;;;;;37.97;16.67;;;6.20;99.90;;;;;;6245814;22;20136;-95
2022/01/19 08:48:38;;;;;;;34.45;15.57;;;6.30;99.90;;;;;;6245331;22;20008;-93
2022/01/19 08:51:04;;;;;;;30.20;15.35;;;6.30;99.90;;;;;;6272620;22;20062;-92
2022/01/19 08:53:31;;;;;;;31.15;16.13;;;6.40;99.90;;;;;;6272500;22;20007;-92
2022/01/19 08:55:57;;;;;;;31.40;15.95;;;6.40;99.90;;;;;;6272169;22;20006;-92
2022/01/19 08:58:24;;;;;;;36.83;17.23;;;6.50;99.90;;;;;;6275075;22;20055;-88
2022/01/19 09:00:50;;;;;;;36.70;16.45;;;6.50;99.90;;;;;;6274344;22;20110;-93
2022/01/19 09:03:16;;;;;;;32.88;16.42;;;6.50;99.90;;;;;;6271777;22;20059;-91
2022/01/19 09:05:42;;;;;;;31.85;17.40;;;6.60;99.90;;;;;;6271984;22;20022;-86
2022/01/19 09:08:09;;;;;;;28.55;15.25;;;6.50;99.90;;;;;;6271784;22;20023;-91
2022/01/19 09:10:35;;;;;;;34.22;17.33;;;6.50;99.90;;;;;;6271351;22;20027;-92
2022/01/19 09:13:00;;;;;;;35.08;16.02;;;6.50;99.90;;;;;;6271727;22;20014;-89
2022/01/19 09:15:27;;;;;;;29.88;15.93;;;6.50;99.90;;;;;;6271513;22;20027;-93
2022/01/19 09:17:53;;;;;;;33.13;15.75;;;6.40;99.90;;;;;;6245610;22;20003;-91
2022/01/19 09:20:19;;;;;;;32.60;16.40;;;6.40;99.90;;;;;;6271204;22;20008;-85
2022/01/19 09:22:45;;;;;;;30.75;16.15;;;6.40;99.90;;;;;;6244737;22;20550;-91
2022/01/19 09:25:12;;;;;;;31.92;16.17;;;6.50;99.90;;;;;;6271646;22;20043;-90
2022/01/19 09:27:39;;;;;;;27.80;14.82;;;6.50;99.90;;;;;;6244733;22;20007;-90
2022/01/19 09:30:17;;;;;;;32.80;15.73;;;6.50;99.90;;;;;;6271210;22;20007;-89
2022/01/19 09:32:54;;;;;;;31.25;15.73;;;6.60;99.90;;;;;;6244297;22;20008;-85
2022/01/19 09:35:24;;;;;;;25.53;15.50;;;6.40;99.90;;;;;;6245530;22;20008;-85
2022/01/19 09:37:50;;;;;;;29.25;15.57;;;6.50;99.90;;;;;;6271807;22;20686;-85
2022/01/19 09:40:16;;;;;;;29.30;15.95;;;6.50;99.90;;;;;;6270588;22;20049;-85
2022/01/19 09:42:45;;;;;;;30.13;16.00;;;6.50;99.90;;;;;;6243891;22;20383;-85
2022/01/19 09:45:10;;;;;;;33.17;16.23;;;6.50;99.90;;;;;;6270471;22;20016;-85
2022/01/19 09:47:36;;;;;;;33.88;15.40;;;6.40;99.90;;;;;;6270187;22;20057;-91
2022/01/19 09:50:03;;;;;;;28.33;15.43;;;6.50;99.90;;;;;;6270355;22;20000;-88
2022/01/19 09:52:29;;;;;;;27.48;14.50;;;6.50;99.90;;;;;;6271547;22;20027;-91
2022/01/19 09:54:56;;;;;;;25.25;14.52;;;6.50;99.90;;;;;;6272412;22;20004;-85
2022/01/19 09:57:22;;;;;;;31.15;15.25;;;6.50;99.90;;;;;;6245097;22;20499;-93
2022/01/19 09:59:47;;;;;;;26.45;15.75;;;6.40;99.90;;;;;;6271632;22;20159;-92
2022/01/19 10:02:16;;;;;;;29.33;14.75;;;6.50;99.90;;;;;;6271379;22;20421;-92
2022/01/19 10:04:46;;;;;;;32.30;15.30;;;6.50;99.90;;;;;;6244320;22;20039;-89
2022/01/19 10:07:13;;;;;;;29.92;15.35;;;6.60;99.90;;;;;;6271229;22;20321;-90
2022/01/19 10:10:01;;;;;;;26.83;14.93;;;6.60;99.90;;;;;;6244283;22;20007;-90
2022/01/19 10:18:19;;;;;;;29.08;15.82;;;6.90;99.90;;;;;;6271289;22;20126;-89
2022/01/19 10:20:47;;;;;;;35.53;17.52;;;7.00;99.90;;;;;;6244398;22;20010;-89
2022/01/19 10:23:33;;;;;;;31.00;16.05;;;7.00;99.90;;;;;;6244310;22;20440;-89
2022/01/19 10:26:00;;;;;;;32.17;16.13;;;7.10;99.90;;;;;;6244570;22;20019;-91
2022/01/19 10:28:26;;;;;;;35.20;16.67;;;7.50;99.90;;;;;;6245117;22;20008;-89
2022/01/19 10:30:53;;;;;;;29.48;17.48;;;7.20;99.90;;;;;;6244183;22;20031;-90
2022/01/19 10:33:19;;;;;;;29.42;16.20;;;7.20;99.90;;;;;;6271161;22;20004;-89
2022/01/19 10:35:48;;;;;;;33.85;15.98;;;7.20;99.90;;;;;;6244036;22;20027;-90
2022/01/19 10:38:16;;;;;;;30.90;15.85;;;7.20;99.90;;;;;;6244208;22;20397;-89
2022/01/19 10:41:05;;;;;;;32.17;16.53;;;7.20;99.90;;;;;;6270911;22;20348;-91
2022/01/19 10:43:37;;;;;;;30.80;16.40;;;7.40;99.90;;;;;;6244744;22;20242;-91
2022/01/19 10:46:31;;;;;;;29.67;15.38;;;7.50;99.90;;;;;;6270194;22;19953;-90
2022/01/19 10:49:08;;;;;;;37.33;16.15;;;7.70;99.90;;;;;;6270754;22;20011;-91
2022/01/19 10:51:39;;;;;;;29.65;15.63;;;7.90;99.90;;;;;;6270987;22;20007;-92
2022/01/19 10:54:17;;;;;;;31.08;15.27;;;7.70;99.90;;;;;;6274059;22;20079;-91
2022/01/19 10:56:45;;;;;;;26.53;14.97;;;7.80;99.90;;;;;;6270427;22;20008;-91
2022/01/19 10:59:16;;;;;;;25.58;14.65;;;7.80;99.90;;;;;;6268490;22;20245;-90
2022/01/19 11:01:52;;;;;;;28.80;14.90;;;7.80;99.90;;;;;;6270227;22;20003;-92
2022/01/19 11:04:20;;;;;;;28.20;14.70;;;7.90;99.90;;;;;;6271355;22;20344;-88
2022/01/19 11:06:51;;;;;;;29.92;14.25;;;8.00;99.90;;;;;;6270208;22;20027;-94
2022/01/19 11:09:22;;;;;;;31.70;15.93;;;8.00;99.90;;;;;;6268387;22;20000;-93
2022/01/19 11:11:48;;;;;;;25.88;14.20;;;8.00;99.90;;;;;;6270093;22;20209;-91
2022/01/19 11:14:16;;;;;;;25.25;13.55;;;8.00;99.90;;;;;;6272220;22;20000;-90
2022/01/19 11:16:43;;;;;;;27.05;14.23;;;8.00;99.90;;;;;;6272373;22;19996;-92
2022/01/19 11:19:12;;;;;;;28.08;13.55;;;7.90;99.90;;;;;;6273355;22;20004;-91
2022/01/19 11:22:05;;;;;;;24.63;14.02;;;8.00;99.90;;;;;;6272261;22;19999;-91
2022/01/19 11:24:53;;;;;;;28.85;13.07;;;8.00;99.90;;;;;;6272088;22;20008;-89
2022/01/19 11:27:20;;;;;;;24.10;12.32;;;8.00;99.90;;;;;;6273564;22;20004;-92
2022/01/19 11:30:05;;;;;;;23.50;12.65;;;7.90;99.90;;;;;;6272837;22;20027;-91
2022/01/19 11:32:31;;;;;;;25.30;12.80;;;7.80;99.90;;;;;;6271919;22;20034;-90
2022/01/19 11:34:57;;;;;;;27.00;13.75;;;7.70;99.90;;;;;;6273179;22;20026;-94
2022/01/19 11:37:43;;;;;;;25.15;12.88;;;7.70;99.90;;;;;;6273280;22;20008;-92
2022/01/19 11:40:14;;;;;;;24.75;12.45;;;7.60;99.50;;;;;;6273725;22;20004;-92
2022/01/19 11:42:41;;;;;;;24.10;13.50;;;7.50;99.50;;;;;;6275144;22;20004;-92
2022/01/19 11:45:09;;;;;;;29.85;14.00;;;7.50;99.50;;;;;;6273326;22;20106;-91
2022/01/19 11:47:36;;;;;;;;;;;7.40;99.80;;;;;;6247828;22;20531;-92
2022/01/19 11:50:18;;;;;;;24.00;12.80;;;7.50;99.90;;;;;;6247628;22;19906;-88
2022/01/19 11:52:44;;;;;;;25.80;13.07;;;7.40;99.90;;;;;;6274071;22;20105;-90
2022/01/19 11:55:11;;;;;;;21.83;13.20;;;7.60;99.90;;;;;;6245637;22;20498;-92
2022/01/19 11:57:40;;;;;;;23.65;13.23;;;7.50;99.90;;;;;;6274865;22;20023;-92
2022/01/19 12:00:08;;;;;;;35.13;14.27;;;7.70;99.90;;;;;;6245291;22;20533;-93
2022/01/19 12:02:39;;;;;;;22.25;12.13;;;7.70;99.90;;;;;;6272890;22;20007;-92
2022/01/19 12:05:07;;;;;;;32.08;14.18;;;7.80;99.90;;;;;;6272671;22;20012;-90
2022/01/19 12:07:43;;;;;;;28.00;12.75;;;7.90;99.20;;;;;;6272854;22;20003;-90
2022/01/19 12:10:12;;;;;;;22.67;12.40;;;7.90;99.60;;;;;;6247524;22;20012;-93
2022/01/19 12:12:54;;;;;;;23.50;11.70;;;7.90;98.70;;;;;;6276892;22;20130;-87
2022/01/19 12:15:55;;;;;;;22.25;11.65;;;7.90;98.70;;;;;;6274849;22;20003;-90
2022/01/19 12:18:46;;;;;;;22.73;12.00;;;8.00;98.00;;;;;;6248641;22;20008;-92
2022/01/19 12:21:20;;;;;;;20.25;11.63;;;8.00;98.70;;;;;;6246086;22;20033;-93
2022/01/19 12:23:46;;;;;;;20.50;11.00;;;8.00;97.80;;;;;;6274434;22;20071;-92
2022/01/19 12:26:12;;;;;;;21.10;10.57;;;8.10;97.40;;;;;;6272390;22;20003;-90
2022/01/19 12:28:48;;;;;;;21.75;10.23;;;8.10;96.90;;;;;;6271725;22;20455;-88
2022/01/19 12:31:26;;;;;;;20.77;8.68;;;8.10;97.90;;;;;;6276431;22;20034;-90
2022/01/19 12:34:07;;;;;;;19.75;9.70;;;8.90;98.00;;;;;;6282508;22;20371;-90
2022/01/19 12:36:54;;;;;;;17.08;8.93;;;8.20;97.70;;;;;;6276991;22;20080;-91
2022/01/19 12:39:26;;;;;;;22.02;9.85;;;8.30;98.20;;;;;;6246929;22;20436;-93
2022/01/19 12:42:17;;;;;;;16.23;8.30;;;8.40;97.80;;;;;;6279707;22;20000;-88
2022/01/19 12:44:50;;;;;;;12.27;8.18;;;8.50;97.50;;;;;;6266815;22;20090;-91
2022/01/19 12:47:28;;;;;;;13.50;7.78;;;8.70;96.40;;;;;;6243139;22;20452;-89
2022/01/19 12:49:56;;;;;;;16.77;7.97;;;8.80;95.70;;;;;;6244779;22;20300;-91
2022/01/19 12:52:25;;;;;;;14.40;7.50;;;8.90;95.10;;;;;;6244208;22;20007;-91
2022/01/19 12:54:52;;;;;;;;;;;9.00;96.50;;;;;;6271856;22;19999;-89
2022/01/19 12:57:18;;;;;;;13.75;7.53;;;9.10;96.60;;;;;;6271729;22;19948;-92
2022/01/19 12:59:47;;;;;;;13.05;7.85;;;9.10;97.10;;;;;;6241433;22;20007;-90
2022/01/19 13:02:15;;;;;;;16.60;8.10;;;9.10;97.30;;;;;;6268180;22;20007;-92
2022/01/19 13:04:46;;;;;;;15.23;7.50;;;9.20;97.40;;;;;;6241663;22;20007;-93
2022/01/19 13:07:26;;;;;;;12.00;7.50;;;9.30;96.50;;;;;;6241230;22;20004;-89
2022/01/19 13:12:57;;;;;;;15.55;8.25;;;9.30;95.30;;;;;;6268791;22;20015;-90
2022/01/19 13:15:38;;;;;;;15.73;8.93;;;9.20;94.50;;;;;;6241179;22;20280;-90
2022/01/19 13:18:04;;;;;;;20.95;8.82;;;9.20;95.20;;;;;;6239465;22;20004;-93
2022/01/19 13:20:31;;;;;;;17.15;8.40;;;9.20;94.10;;;;;;6244410;22;20031;-92
2022/01/19 13:22:57;;;;;;;15.30;8.18;;;9.20;94.60;;;;;;6241630;22;20081;-90
2022/01/19 13:25:29;;;;;;;12.48;7.55;;;9.20;93.80;;;;;;6241811;22;20346;-91
2022/01/19 13:27:57;;;;;;;13.07;7.75;;;9.10;94.50;;;;;;6242654;22;20008;-93
2022/01/19 13:30:27;;;;;;;16.35;8.18;;;9.10;94.50;;;;;;6242584;22;20477;-95
2022/01/19 13:32:53;;;;;;;13.90;7.70;;;9.10;94.70;;;;;;6241417;22;20224;-93
2022/01/19 13:35:21;;;;;;;15.50;8.23;;;9.10;94.80;;;;;;6269138;22;20007;-93
2022/01/19 13:37:54;;;;;;;15.88;8.05;;;9.10;94.30;;;;;;6269287;22;20000;-91
2022/01/19 13:40:26;;;;;;;14.15;8.73;;;9.10;93.50;;;;;;6242036;22;20027;-91
2022/01/19 13:43:03;;;;;;;14.25;8.00;;;9.00;93.20;;;;;;6241742;22;19999;-91
2022/01/19 13:48:21;;;;;;;14.48;8.70;;;8.90;93.80;;;;;;6267638;22;20004;-92
2022/01/19 13:50:50;;;;;;;17.73;9.00;;;8.90;94.30;;;;;;6241902;22;20428;-90
2022/01/19 13:53:26;;;;;;;13.73;8.38;;;8.90;93.90;;;;;;6239210;22;20009;-91
2022/01/19 13:55:52;;;;;;;13.60;8.50;;;8.70;94.10;;;;;;6242823;22;20491;-91
2022/01/19 13:58:18;;;;;;;13.10;8.18;;;8.90;94.10;;;;;;6240711;22;20011;-93
2022/01/19 14:00:57;;;;;;;14.90;8.27;;;8.90;94.40;;;;;;6242264;22;20007;-93
2022/01/19 14:03:24;;;;;;;14.52;8.15;;;8.80;94.80;;;;;;6268057;22;20509;-92
2022/01/19 14:05:55;;;;;;;15.75;8.50;;;8.80;94.80;;;;;;6268807;22;20016;-92
2022/01/19 14:08:32;;;;;;;18.75;8.77;;;8.80;95.30;;;;;;6241201;22;20081;-93
2022/01/19 14:10:58;;;;;;;19.17;8.90;;;8.90;94.60;;;;;;6243999;22;20406;-91
2022/01/19 14:13:33;;;;;;;14.90;8.73;;;8.90;94.80;;;;;;6245825;22;20057;-91
2022/01/19 14:16:25;;;;;;;14.63;9.23;;;8.80;94.80;;;;;;6269788;22;20000;-91
2022/01/19 14:19:06;;;;;;;14.73;8.48;;;8.80;95.20;;;;;;6240882;22;20007;-92
2022/01/19 14:21:31;;;;;;;16.52;9.00;;;8.70;95.20;;;;;;6243143;22;20035;-90
2022/01/19 14:24:02;;;;;;;15.60;8.82;;;8.70;95.40;;;;;;6241790;22;20004;-90